Time;durP1;ratioP1;P1;durP2;ratioP2;P2;SDS_P1;SDS_P2;PMS_P1;PMS_P2;Temp;Humidity;BMP_temperature;BMP_pressure;BME280_temperature;BME280_humidity;BME280_pressure;Samples;Min_cycle;Max_cycle;Signal;HPM_P1;HPM_P2
2020/12/30 00:00:30;;;;;;;867.53;782.70;;;3.60;99.90;;;;;;12497133;23;88084;-71
2020/12/30 00:05:32;;;;;;;833.80;751.83;;;3.60;99.90;;;;;;12499002;23;87783;-71
2020/12/30 00:10:34;;;;;;;789.53;710.43;;;3.60;99.90;;;;;;12495795;23;87738;-71
2020/12/30 00:15:36;;;;;;;747.33;670.73;;;3.50;99.90;;;;;;12500453;23;88076;-71
2020/12/30 00:20:38;;;;;;;433.90;334.60;;;3.50;99.90;;;;;;12497385;23;87965;-71
2020/12/30 00:25:40;;;;;;;517.97;446.73;;;3.40;99.90;;;;;;12500595;23;87734;-71
2020/12/30 00:30:42;;;;;;;487.33;387.17;;;3.40;99.90;;;;;;12499986;23;88642;-70
2020/12/30 00:35:43;;;;;;;356.00;248.27;;;3.20;99.90;;;;;;12499586;23;89201;-71
2020/12/30 00:40:48;;;;;;;241.87;168.67;;;3.20;99.90;;;;;;12497065;23;90418;-72
2020/12/30 00:45:50;;;;;;;155.43;104.93;;;3.20;99.90;;;;;;12497654;23;89956;-70
2020/12/30 00:50:52;;;;;;;155.70;102.43;;;3.20;99.90;;;;;;12496927;23;87954;-70
2020/12/30 00:55:55;;;;;;;116.20;78.57;;;3.20;99.90;;;;;;12470577;23;89128;-70
2020/12/30 01:01:00;;;;;;;194.40;105.03;;;3.20;99.90;;;;;;12500007;23;88876;-70
2020/12/30 01:06:12;;;;;;;395.67;240.27;;;3.20;99.90;;;;;;12502143;23;87257;-70
2020/12/30 01:11:23;;;;;;;554.20;436.33;;;3.10;99.90;;;;;;12492960;23;87800;-72
2020/12/30 01:16:26;;;;;;;508.97;386.00;;;3.10;99.90;;;;;;12492701;23;87909;-71
2020/12/30 01:21:27;;;;;;;343.80;207.17;;;3.10;99.90;;;;;;12498625;23;86417;-71
2020/12/30 01:26:30;;;;;;;573.70;437.53;;;3.00;99.90;;;;;;12499867;23;88112;-70
2020/12/30 01:31:32;;;;;;;625.20;499.33;;;2.80;99.90;;;;;;12497596;23;88187;-70
2020/12/30 01:36:36;;;;;;;541.53;362.87;;;2.70;99.90;;;;;;12502025;23;88811;-70
2020/12/30 01:41:41;;;;;;;445.60;312.60;;;2.70;99.90;;;;;;12502875;23;88571;-71
2020/12/30 01:46:45;;;;;;;410.40;285.60;;;2.60;99.90;;;;;;12503186;23;88907;-70
2020/12/30 01:51:48;;;;;;;326.93;202.50;;;2.60;99.90;;;;;;12504178;23;87947;-70
2020/12/30 01:56:52;;;;;;;64.57;40.90;;;2.60;99.90;;;;;;12503510;23;89088;-70
2020/12/30 02:01:58;;;;;;;61.30;37.00;;;2.50;99.90;;;;;;12500978;23;87855;-70
2020/12/30 02:07:00;;;;;;;17.07;15.23;;;2.40;99.90;;;;;;12502144;23;87054;-71
2020/12/30 02:12:04;;;;;;;40.23;26.17;;;2.30;99.90;;;;;;12506856;23;87178;-71
2020/12/30 02:17:11;;;;;;;29.23;21.67;;;2.20;99.90;;;;;;12504879;23;86932;-69
2020/12/30 02:22:17;;;;;;;13.00;11.17;;;2.10;99.90;;;;;;12504853;23;87664;-71
2020/12/30 02:27:20;;;;;;;48.27;31.07;;;2.00;99.90;;;;;;12505534;23;88506;-70
2020/12/30 02:32:21;;;;;;;274.40;160.97;;;1.90;99.90;;;;;;12503642;23;87744;-69
2020/12/30 02:37:23;;;;;;;366.83;230.93;;;1.90;99.90;;;;;;12502919;23;87031;-70
2020/12/30 02:42:26;;;;;;;339.20;192.93;;;1.80;99.90;;;;;;12501848;23;87750;-70
2020/12/30 02:47:27;;;;;;;552.47;417.93;;;1.70;99.90;;;;;;12504477;23;87723;-71
2020/12/30 02:52:29;;;;;;;295.60;166.20;;;1.60;99.90;;;;;;12503287;23;88680;-71
2020/12/30 02:57:31;;;;;;;443.00;290.20;;;1.60;99.90;;;;;;12503980;23;87513;-70
2020/12/30 03:02:33;;;;;;;510.33;349.43;;;1.60;99.90;;;;;;12495476;23;87030;-71
2020/12/30 03:07:34;;;;;;;521.57;331.83;;;1.60;99.90;;;;;;12476527;23;88091;-72
2020/12/30 03:12:37;;;;;;;399.90;259.43;;;1.50;99.90;;;;;;12475978;23;87392;-72
2020/12/30 03:17:39;;;;;;;217.53;126.80;;;1.40;99.90;;;;;;12478856;23;88483;-71
2020/12/30 03:22:40;;;;;;;276.70;146.83;;;1.40;99.90;;;;;;12478900;23;88495;-71
2020/12/30 03:27:43;;;;;;;258.57;158.07;;;1.40;99.90;;;;;;12479085;23;88423;-72
2020/12/30 03:32:47;;;;;;;53.43;33.70;;;1.60;99.90;;;;;;12477779;23;88601;-71
2020/12/30 03:37:49;;;;;;;60.50;36.90;;;1.80;99.90;;;;;;12479668;23;87304;-72
2020/12/30 03:42:54;;;;;;;32.43;23.73;;;2.00;99.90;;;;;;12479385;23;88982;-71
2020/12/30 03:47:56;;;;;;;32.37;21.70;;;2.10;99.90;;;;;;12481620;23;87679;-72
2020/12/30 03:52:57;;;;;;;43.17;28.90;;;2.20;99.90;;;;;;12481649;23;86776;-71
2020/12/30 03:58:00;;;;;;;30.17;20.77;;;2.20;99.90;;;;;;12483691;23;87671;-71
2020/12/30 04:03:01;;;;;;;20.93;17.07;;;2.20;99.90;;;;;;12479110;23;87656;-71
2020/12/30 04:08:03;;;;;;;20.53;15.77;;;2.10;99.90;;;;;;12480047;23;89660;-72
2020/12/30 04:13:06;;;;;;;26.40;19.00;;;2.10;99.90;;;;;;12480972;23;88962;-72
2020/12/30 04:18:08;;;;;;;42.97;27.83;;;2.20;99.90;;;;;;12480173;23;88012;-72
2020/12/30 04:23:09;;;;;;;83.97;47.23;;;2.30;99.90;;;;;;12453222;23;89428;-71
2020/12/30 04:28:12;;;;;;;111.57;60.23;;;2.30;99.90;;;;;;12482026;23;88906;-72
2020/12/30 04:33:13;;;;;;;88.00;49.93;;;2.20;99.90;;;;;;12481003;23;88265;-71
2020/12/30 04:38:15;;;;;;;60.03;37.10;;;2.30;99.90;;;;;;12481585;23;87766;-71
2020/12/30 04:43:19;;;;;;;28.57;20.83;;;2.40;99.90;;;;;;12481533;23;88289;-72
2020/12/30 04:48:23;;;;;;;59.70;36.63;;;2.30;99.90;;;;;;12479996;23;87999;-71
2020/12/30 04:53:25;;;;;;;7.77;6.97;;;2.30;99.90;;;;;;12479318;23;88979;-71
2020/12/30 04:58:29;;;;;;;23.07;18.40;;;2.40;99.90;;;;;;12483318;23;88875;-70
2020/12/30 05:03:32;;;;;;;21.33;17.27;;;2.40;99.90;;;;;;12478762;23;88063;-71
2020/12/30 05:08:34;;;;;;;45.57;29.33;;;2.40;99.90;;;;;;12483911;23;88615;-71
2020/12/30 05:13:37;;;;;;;37.63;24.50;;;2.30;99.90;;;;;;12482766;23;88087;-71
2020/12/30 05:18:40;;;;;;;29.93;22.27;;;2.20;99.90;;;;;;12479593;23;87271;-71
2020/12/30 05:23:42;;;;;;;44.07;28.90;;;2.20;99.90;;;;;;12457797;23;90917;-70
2020/12/30 05:28:45;;;;;;;37.70;24.23;;;2.20;99.90;;;;;;12483002;23;88961;-71
2020/12/30 05:33:47;;;;;;;58.50;36.10;;;2.10;99.90;;;;;;12484548;23;87076;-70
2020/12/30 05:38:48;;;;;;;63.20;37.00;;;2.10;99.90;;;;;;12483843;23;88352;-70
2020/12/30 05:43:51;;;;;;;96.27;52.10;;;2.10;99.90;;;;;;12483935;23;87669;-71
2020/12/30 05:48:53;;;;;;;80.07;44.50;;;2.10;99.90;;;;;;12481485;23;89046;-71
2020/12/30 05:54:11;;;;;;;35.07;22.50;;;2.10;99.90;;;;;;12485790;23;88247;-71
2020/12/30 05:59:15;;;;;;;53.73;32.93;;;2.10;99.90;;;;;;12482950;23;87802;-71
2020/12/30 06:04:19;;;;;;;156.37;78.47;;;2.10;99.90;;;;;;12479995;23;88234;-71
2020/12/30 06:09:20;;;;;;;48.27;32.47;;;2.10;99.90;;;;;;12482459;23;88081;-71
2020/12/30 06:14:23;;;;;;;23.47;18.23;;;2.10;99.90;;;;;;12483183;23;88124;-71
2020/12/30 06:19:27;;;;;;;13.80;11.57;;;2.00;99.90;;;;;;12480231;23;87763;-73
2020/12/30 06:24:28;;;;;;;28.47;21.73;;;2.00;99.90;;;;;;12482352;23;86743;-72
2020/12/30 06:29:31;;;;;;;61.67;36.23;;;2.00;99.90;;;;;;12482878;23;88725;-72
2020/12/30 06:34:36;;;;;;;201.83;101.47;;;1.90;99.90;;;;;;12483564;23;87439;-72
2020/12/30 06:39:37;;;;;;;184.70;87.17;;;1.80;99.90;;;;;;12501744;23;88696;-71
2020/12/30 06:44:41;;;;;;;171.63;85.77;;;1.80;99.90;;;;;;12504546;23;88474;-71
2020/12/30 06:49:45;;;;;;;239.90;117.50;;;1.90;99.90;;;;;;12500521;23;88040;-71
2020/12/30 06:54:47;;;;;;;184.20;88.27;;;1.90;99.90;;;;;;12499988;23;87583;-72
2020/12/30 06:59:50;;;;;;;224.23;111.20;;;2.00;99.90;;;;;;12501482;23;87637;-71
2020/12/30 07:05:01;;;;;;;14.30;12.17;;;2.00;99.90;;;;;;12501914;23;88568;-71
2020/12/30 07:10:23;;;;;;;48.53;29.40;;;2.00;99.90;;;;;;12500734;23;88899;-72
2020/12/30 07:15:27;;;;;;;133.57;67.87;;;2.10;99.90;;;;;;12503022;23;87477;-72
2020/12/30 07:20:31;;;;;;;54.97;34.87;;;2.00;99.90;;;;;;12504038;23;89245;-71
2020/12/30 07:25:34;;;;;;;59.50;36.93;;;2.00;99.90;;;;;;12502814;23;88062;-71
2020/12/30 07:30:36;;;;;;;103.00;54.93;;;2.00;99.90;;;;;;12498190;23;89059;-72
2020/12/30 07:35:38;;;;;;;76.50;43.23;;;2.00;99.90;;;;;;12498326;23;88609;-70
2020/12/30 07:40:40;;;;;;;85.17;46.57;;;2.10;99.90;;;;;;12504849;23;88071;-71
2020/12/30 07:45:42;;;;;;;60.27;36.93;;;2.00;99.90;;;;;;12478196;23;88458;-71
2020/12/30 07:50:50;;;;;;;114.60;57.70;;;2.00;99.90;;;;;;12503567;23;87657;-71
2020/12/30 07:55:51;;;;;;;105.23;55.30;;;2.10;99.90;;;;;;12502370;23;88073;-72
2020/12/30 08:00:54;;;;;;;119.17;61.83;;;2.10;99.90;;;;;;12503674;23;88067;-71
2020/12/30 08:05:58;;;;;;;112.13;58.07;;;2.20;99.90;;;;;;12504929;23;87090;-71
2020/12/30 08:11:00;;;;;;;51.67;31.37;;;2.20;99.90;;;;;;12503818;23;88454;-72
2020/12/30 08:16:02;;;;;;;54.93;33.67;;;2.30;99.90;;;;;;12504161;23;87734;-71
2020/12/30 08:21:11;;;;;;;43.53;28.33;;;2.30;99.90;;;;;;12497689;23;89193;-71
2020/12/30 08:26:13;;;;;;;38.50;26.43;;;2.30;99.90;;;;;;12503696;23;87649;-73
2020/12/30 08:31:18;;;;;;;33.40;22.57;;;2.30;99.90;;;;;;12499837;23;88666;-71
2020/12/30 08:36:25;;;;;;;31.77;23.23;;;2.40;99.90;;;;;;12502116;23;87915;-72
2020/12/30 08:41:31;;;;;;;14.70;10.93;;;2.30;99.90;;;;;;12500371;23;87719;-71
2020/12/30 08:46:36;;;;;;;15.77;9.87;;;2.40;99.90;;;;;;12505549;23;87681;-71
2020/12/30 08:51:38;;;;;;;19.30;12.33;;;2.40;99.90;;;;;;12481729;23;88760;-71
2020/12/30 08:56:40;;;;;;;19.00;11.63;;;2.50;99.90;;;;;;12507777;23;86911;-71
2020/12/30 09:01:42;;;;;;;16.27;10.90;;;2.60;99.90;;;;;;12504974;23;88036;-71
2020/12/30 09:06:50;;;;;;;32.57;23.07;;;2.70;99.90;;;;;;12504897;23;88052;-70
2020/12/30 09:11:53;;;;;;;106.13;53.90;;;2.80;99.90;;;;;;12503114;23;88670;-72
2020/12/30 09:16:58;;;;;;;26.67;13.97;;;2.80;99.90;;;;;;12505930;23;87719;-73
2020/12/30 09:22:07;;;;;;;20.70;9.17;;;2.90;99.90;;;;;;12502435;23;88034;-72
2020/12/30 09:27:20;;;;;;;48.93;25.83;;;3.00;99.90;;;;;;12505754;23;88064;-72
2020/12/30 09:32:24;;;;;;;77.20;44.67;;;3.10;99.90;;;;;;12502176;23;88000;-71
2020/12/30 09:37:25;;;;;;;25.50;15.90;;;3.30;99.90;;;;;;12502103;23;88641;-72
2020/12/30 09:42:27;;;;;;;120.57;62.43;;;3.40;99.90;;;;;;12503043;23;87217;-71
2020/12/30 09:47:30;;;;;;;240.17;123.73;;;3.50;99.90;;;;;;12499649;23;87243;-72
2020/12/30 09:52:34;;;;;;;47.17;24.60;;;3.50;99.90;;;;;;12499163;23;87785;-71
2020/12/30 09:57:37;;;;;;;209.07;108.87;;;3.40;99.90;;;;;;12504239;23;88016;-71
2020/12/30 10:02:40;;;;;;;39.83;25.20;;;3.40;99.90;;;;;;12500801;23;88609;-73
2020/12/30 10:07:41;;;;;;;16.20;12.27;;;3.50;99.90;;;;;;12500793;23;88079;-71
2020/12/30 10:12:43;;;;;;;20.27;15.43;;;3.70;99.90;;;;;;12503195;23;87484;-73
2020/12/30 10:17:46;;;;;;;13.03;8.20;;;3.80;99.90;;;;;;12498761;23;88528;-71
2020/12/30 10:22:47;;;;;;;11.87;6.07;;;3.80;99.90;;;;;;12501235;23;87548;-72
2020/12/30 10:27:50;;;;;;;10.20;8.57;;;4.00;99.90;;;;;;12504170;23;88655;-72
2020/12/30 10:32:52;;;;;;;8.97;5.83;;;4.40;99.90;;;;;;12502773;23;88633;-71
2020/12/30 10:37:54;;;;;;;8.70;6.07;;;4.80;99.90;;;;;;12507352;23;86755;-71
2020/12/30 10:42:56;;;;;;;44.97;24.77;;;5.10;99.90;;;;;;12501535;23;88080;-72
2020/12/30 10:47:58;;;;;;;6.90;3.60;;;5.10;99.90;;;;;;12501446;23;87968;-71
2020/12/30 10:53:03;;;;;;;7.33;3.47;;;5.10;99.90;;;;;;12502175;23;88871;-72
2020/12/30 10:58:04;;;;;;;6.63;3.10;;;4.90;99.90;;;;;;12506165;23;88049;-71
2020/12/30 11:03:07;;;;;;;7.13;3.10;;;4.80;99.90;;;;;;12503033;23;87718;-71
2020/12/30 11:08:09;;;;;;;7.90;4.10;;;4.70;99.90;;;;;;12507395;23;87792;-72
2020/12/30 11:13:11;;;;;;;8.80;3.57;;;4.70;99.90;;;;;;12480007;23;89580;-71
2020/12/30 11:18:13;;;;;;;6.40;3.47;;;4.70;99.90;;;;;;12500248;23;88369;-71
2020/12/30 11:23:17;;;;;;;10.07;3.87;;;4.80;99.90;;;;;;12504434;23;87559;-71
2020/12/30 11:28:19;;;;;;;6.10;2.80;;;4.80;99.90;;;;;;12500547;23;86789;-71
2020/12/30 11:33:21;;;;;;;12.27;3.10;;;5.00;99.90;;;;;;12502158;23;88895;-70
2020/12/30 11:38:23;;;;;;;5.37;3.30;;;5.30;99.90;;;;;;12504679;23;87564;-72
2020/12/30 11:43:25;;;;;;;5.20;3.10;;;5.60;99.90;;;;;;12497253;23;89591;-71
2020/12/30 11:48:28;;;;;;;4.60;2.90;;;5.80;99.90;;;;;;12502464;23;87704;-71
2020/12/30 11:53:29;;;;;;;6.17;3.20;;;5.80;99.90;;;;;;12489729;23;87649;-70
2020/12/30 11:58:31;;;;;;;7.00;3.17;;;5.90;99.90;;;;;;12478684;23;87470;-70
2020/12/30 12:03:34;;;;;;;4.87;2.93;;;6.50;99.90;;;;;;12482419;23;87502;-72
2020/12/30 12:08:35;;;;;;;36.97;19.03;;;7.50;99.90;;;;;;12479914;23;87526;-72
2020/12/30 12:13:37;;;;;;;9.17;3.30;;;7.50;99.10;;;;;;12481392;23;87731;-71
2020/12/30 12:18:40;;;;;;;8.37;3.83;;;7.30;98.30;;;;;;12480470;23;86529;-72
2020/12/30 12:23:41;;;;;;;5.53;3.23;;;7.20;98.50;;;;;;12482247;23;87568;-75
2020/12/30 12:28:59;;;;;;;7.07;3.33;;;7.20;98.50;;;;;;12453696;23;89951;-74
2020/12/30 12:34:03;;;;;;;5.83;2.90;;;7.00;98.30;;;;;;12479618;23;89385;-72
2020/12/30 12:39:05;;;;;;;7.63;3.33;;;6.70;98.30;;;;;;12479270;23;88656;-71
2020/12/30 12:44:07;;;;;;;7.53;3.20;;;6.60;98.50;;;;;;12481488;23;87536;-71
2020/12/30 12:49:09;;;;;;;5.80;3.00;;;6.40;98.60;;;;;;12481691;23;88045;-71
2020/12/30 12:54:11;;;;;;;24.30;4.10;;;6.10;98.60;;;;;;12482414;23;86967;-72
2020/12/30 12:59:14;;;;;;;5.63;3.70;;;6.00;98.90;;;;;;12480087;23;87632;-71
2020/12/30 13:04:23;;;;;;;4.67;2.83;;;5.80;99.10;;;;;;12450980;23;87592;-72
2020/12/30 13:09:25;;;;;;;5.30;3.40;;;5.70;99.20;;;;;;12480367;23;86515;-71
2020/12/30 13:14:27;;;;;;;6.43;4.13;;;5.70;99.30;;;;;;12480895;23;88169;-71
2020/12/30 13:19:29;;;;;;;5.70;4.77;;;5.70;99.40;;;;;;12482569;23;88037;-72
2020/12/30 13:24:31;;;;;;;6.30;2.70;;;5.80;99.40;;;;;;12481345;23;88837;-71
2020/12/30 13:29:33;;;;;;;4.17;2.53;;;5.90;99.40;;;;;;12481236;23;87680;-72
2020/12/30 13:34:38;;;;;;;3.40;2.23;;;6.00;99.30;;;;;;12477693;23;88191;-70
2020/12/30 13:39:40;;;;;;;4.80;3.13;;;6.00;99.30;;;;;;12485048;23;89288;-69
2020/12/30 13:44:42;;;;;;;8.27;4.40;;;6.00;99.20;;;;;;12483953;23;87677;-70
2020/12/30 13:49:44;;;;;;;6.40;4.03;;;6.00;99.30;;;;;;12484752;23;87592;-69
2020/12/30 13:54:46;;;;;;;7.97;4.57;;;6.00;99.30;;;;;;12485489;23;87359;-69
2020/12/30 13:59:48;;;;;;;6.63;4.90;;;6.00;99.40;;;;;;12483783;23;86578;-71
2020/12/30 14:04:50;;;;;;;14.43;10.83;;;6.10;99.40;;;;;;12484291;23;89030;-70
2020/12/30 14:09:52;;;;;;;15.90;11.10;;;6.00;99.40;;;;;;12457519;23;87612;-70
2020/12/30 14:14:54;;;;;;;13.73;10.87;;;6.00;99.40;;;;;;12480395;23;90158;-70
2020/12/30 14:19:56;;;;;;;27.53;21.27;;;6.00;99.50;;;;;;12482879;23;87557;-70
2020/12/30 14:24:58;;;;;;;52.17;32.33;;;5.90;99.60;;;;;;12455830;23;90171;-70
2020/12/30 14:29:59;;;;;;;57.00;37.27;;;5.90;99.60;;;;;;12481225;23;88803;-70
2020/12/30 14:35:02;;;;;;;102.53;63.97;;;6.00;99.70;;;;;;12480858;23;87991;-71
2020/12/30 14:40:05;;;;;;;84.23;54.93;;;6.00;99.70;;;;;;12479200;23;88384;-70
2020/12/30 14:45:07;;;;;;;30.33;23.77;;;6.00;99.70;;;;;;12480305;23;87681;-69
2020/12/30 14:50:10;;;;;;;38.13;32.40;;;6.00;99.80;;;;;;12477848;23;86503;-71
2020/12/30 14:55:11;;;;;;;652.73;583.03;;;6.00;99.80;;;;;;12480003;23;88677;-70
2020/12/30 15:00:14;;;;;;;877.80;787.10;;;6.10;99.70;;;;;;12475253;23;87858;-71
2020/12/30 15:05:19;;;;;;;471.20;368.03;;;6.00;99.80;;;;;;12478373;23;88453;-69
2020/12/30 15:10:20;;;;;;;527.67;459.27;;;5.80;99.80;;;;;;12487116;23;89737;-70
2020/12/30 15:15:22;;;;;;;526.17;448.30;;;5.80;99.90;;;;;;12479944;23;87908;-70
2020/12/30 15:20:25;;;;;;;714.10;640.37;;;5.80;99.90;;;;;;12490480;23;86780;-72
2020/12/30 15:25:26;;;;;;;1038.93;802.27;;;5.70;99.90;;;;;;12484643;23;87714;-71
2020/12/30 15:30:28;;;;;;;1141.27;831.23;;;5.70;99.80;;;;;;12478254;23;88192;-70
2020/12/30 15:35:30;;;;;;;1150.50;832.43;;;5.70;99.90;;;;;;12481200;23;86942;-69
2020/12/30 15:40:32;;;;;;;1185.03;835.67;;;5.70;99.90;;;;;;12477532;23;86963;-70
2020/12/30 15:45:34;;;;;;;1181.23;840.00;;;5.70;99.90;;;;;;12474450;23;88747;-70
2020/12/30 15:50:37;;;;;;;1213.03;844.73;;;5.60;99.90;;;;;;12475502;23;87699;-71
2020/12/30 15:55:38;;;;;;;1284.43;849.83;;;5.50;99.90;;;;;;12477965;23;89158;-70
2020/12/30 16:00:41;;;;;;;967.70;778.17;;;5.50;99.90;;;;;;12476502;23;87486;-73
2020/12/30 16:05:43;;;;;;;871.97;782.33;;;5.50;99.90;;;;;;12484618;23;88089;-71
2020/12/30 16:10:45;;;;;;;935.57;817.70;;;5.50;99.90;;;;;;12480479;23;87654;-72
2020/12/30 16:15:47;;;;;;;932.33;811.70;;;5.40;99.90;;;;;;12480106;23;87968;-71
2020/12/30 16:20:52;;;;;;;830.37;743.67;;;5.40;99.90;;;;;;12473203;23;87351;-72
2020/12/30 16:25:54;;;;;;;599.40;534.47;;;5.40;99.90;;;;;;12484752;23;87480;-73
2020/12/30 16:30:58;;;;;;;679.47;606.17;;;5.40;99.90;;;;;;12452141;23;90069;-71
2020/12/30 16:36:01;;;;;;;879.13;791.57;;;5.40;99.90;;;;;;12477077;23;87553;-72
2020/12/30 16:41:03;;;;;;;465.67;373.97;;;5.30;99.90;;;;;;12449187;23;87486;-71
2020/12/30 16:46:07;;;;;;;504.47;429.37;;;5.20;99.90;;;;;;12475908;23;89453;-70
2020/12/30 16:51:10;;;;;;;740.67;662.33;;;5.10;99.90;;;;;;12477523;23;87264;-71
2020/12/30 16:56:16;;;;;;;828.20;741.57;;;5.10;99.90;;;;;;12478615;23;87505;-71
2020/12/30 17:01:17;;;;;;;172.60;106.07;;;5.00;99.90;;;;;;12479045;23;87639;-71
2020/12/30 17:06:20;;;;;;;83.77;46.33;;;5.00;99.90;;;;;;12480315;23;87826;-70
2020/12/30 17:11:22;;;;;;;106.57;59.90;;;5.10;99.90;;;;;;12480536;23;88006;-70
2020/12/30 17:16:23;;;;;;;360.40;244.07;;;5.00;99.90;;;;;;12481529;23;87575;-69
2020/12/30 17:21:26;;;;;;;606.20;510.00;;;5.00;99.90;;;;;;12480868;23;87025;-68
2020/12/30 17:26:28;;;;;;;339.47;203.40;;;4.90;99.90;;;;;;12480338;23;87561;-70
2020/12/30 17:31:39;;;;;;;10.33;4.53;;;4.90;99.90;;;;;;12477860;23;89888;-71
2020/12/30 17:36:43;;;;;;;9.03;7.03;;;4.90;99.90;;;;;;12477014;23;89523;-69
2020/12/30 17:41:45;;;;;;;8.47;5.70;;;4.80;99.90;;;;;;12477133;23;87529;-70
2020/12/30 17:46:49;;;;;;;184.83;106.63;;;4.90;99.90;;;;;;12412043;23;87692;-70
2020/12/30 17:51:52;;;;;;;33.93;23.60;;;4.80;99.90;;;;;;12420409;23;87497;-70
2020/12/30 17:56:54;;;;;;;35.23;23.67;;;4.80;99.90;;;;;;12419529;23;88026;-69
2020/12/30 18:01:55;;;;;;;40.63;28.33;;;4.70;99.90;;;;;;12395489;23;89653;-68
2020/12/30 18:06:58;;;;;;;15.87;12.97;;;4.70;99.90;;;;;;12420755;23;87879;-69
2020/12/30 18:12:00;;;;;;;60.77;36.70;;;4.70;99.90;;;;;;12419536;23;87879;-68
2020/12/30 18:17:05;;;;;;;105.17;56.90;;;4.70;99.90;;;;;;12418482;23;89247;-68
2020/12/30 18:22:07;;;;;;;64.37;40.80;;;4.70;99.90;;;;;;12419723;23;87778;-70
2020/12/30 18:27:09;;;;;;;133.67;82.43;;;4.70;99.90;;;;;;12420115;23;88415;-70
2020/12/30 18:32:13;;;;;;;642.77;563.93;;;4.70;99.90;;;;;;12419669;23;87696;-72
2020/12/30 18:37:16;;;;;;;885.83;749.40;;;4.70;99.90;;;;;;12404238;23;87928;-72
2020/12/30 18:42:18;;;;;;;729.20;650.87;;;4.80;99.90;;;;;;12439171;23;88195;-70
2020/12/30 18:47:20;;;;;;;119.00;72.23;;;4.80;99.90;;;;;;12483985;23;87508;-70
2020/12/30 18:52:23;;;;;;;133.77;82.23;;;4.70;99.90;;;;;;12497606;23;88753;-71
2020/12/30 18:57:24;;;;;;;75.93;47.47;;;4.60;99.90;;;;;;12477389;23;90233;-70
2020/12/30 19:02:26;;;;;;;110.63;57.47;;;4.60;99.90;;;;;;12505548;23;86464;-71
2020/12/30 19:07:34;;;;;;;179.27;81.30;;;4.60;99.90;;;;;;12498212;23;87438;-71
2020/12/30 19:12:46;;;;;;;184.30;90.93;;;4.40;99.90;;;;;;12489041;23;87560;-70
2020/12/30 19:23:12;;;;;;;221.47;105.67;;;4.30;99.90;;;;;;12500997;23;90821;-71
2020/12/30 19:28:14;;;;;;;311.57;185.00;;;4.30;99.90;;;;;;12529104;23;90643;-71
2020/12/30 19:33:15;;;;;;;202.40;105.33;;;4.30;99.90;;;;;;12555738;23;87510;-72
2020/12/30 19:38:18;;;;;;;152.00;76.37;;;4.30;99.90;;;;;;12559642;23;87775;-70
2020/12/30 19:43:19;;;;;;;266.60;150.37;;;4.30;99.90;;;;;;12534857;23;90263;-71
2020/12/30 19:48:21;;;;;;;479.87;371.13;;;4.30;99.90;;;;;;12561304;23;87848;-72
2020/12/30 19:53:23;;;;;;;355.87;234.13;;;4.30;99.90;;;;;;12562339;23;86792;-71
2020/12/30 19:58:25;;;;;;;433.23;240.20;;;4.20;99.90;;;;;;12563795;23;88041;-70
2020/12/30 20:03:26;;;;;;;309.17;172.93;;;4.10;99.90;;;;;;12562008;23;87826;-71
2020/12/30 20:08:29;;;;;;;454.53;258.90;;;4.10;99.90;;;;;;12561327;23;88497;-71
2020/12/30 20:13:31;;;;;;;999.73;794.93;;;4.00;99.90;;;;;;12561421;23;87612;-71
2020/12/30 20:18:33;;;;;;;852.40;746.00;;;4.00;99.90;;;;;;12561875;23;87563;-71
2020/12/30 20:23:35;;;;;;;513.67;383.83;;;3.90;99.90;;;;;;12585017;23;87456;-70
2020/12/30 20:28:37;;;;;;;103.53;57.30;;;3.90;99.90;;;;;;12623152;23;87015;-70
2020/12/30 20:33:39;;;;;;;142.67;66.20;;;4.00;99.90;;;;;;12628358;23;88692;-70
2020/12/30 20:38:41;;;;;;;151.37;75.47;;;4.00;99.90;;;;;;12631231;23;87537;-71
2020/12/30 20:43:44;;;;;;;178.47;89.90;;;3.90;99.90;;;;;;12631984;23;86801;-71
2020/12/30 20:48:45;;;;;;;185.50;93.80;;;3.90;99.90;;;;;;12630565;23;88855;-71
2020/12/30 20:53:48;;;;;;;207.27;101.57;;;3.90;99.90;;;;;;12630978;23;88723;-71
2020/12/30 20:58:50;;;;;;;199.33;112.67;;;3.80;99.90;;;;;;12628494;23;88515;-70
2020/12/30 21:03:52;;;;;;;184.40;100.53;;;3.80;99.90;;;;;;12625848;23;87860;-72
2020/12/30 21:08:54;;;;;;;156.33;94.50;;;3.70;99.90;;;;;;12626684;23;86993;-72
2020/12/30 21:13:56;;;;;;;154.47;79.20;;;3.60;99.90;;;;;;12630385;23;88356;-71
2020/12/30 21:18:58;;;;;;;268.43;138.47;;;3.60;99.90;;;;;;12628700;23;87509;-71
2020/12/30 21:24:02;;;;;;;207.20;106.60;;;3.50;99.90;;;;;;12627798;23;87253;-72
2020/12/30 21:29:05;;;;;;;252.03;131.17;;;3.40;99.90;;;;;;12628256;23;88332;-72
2020/12/30 21:34:07;;;;;;;181.53;92.80;;;3.40;99.90;;;;;;12629339;23;86751;-72
2020/12/30 21:39:09;;;;;;;209.97;104.90;;;3.40;99.90;;;;;;12628871;23;87568;-70
2020/12/30 21:44:11;;;;;;;221.83;109.30;;;3.40;99.90;;;;;;12626233;23;87470;-70
2020/12/30 21:49:13;;;;;;;207.23;101.73;;;3.40;99.90;;;;;;12624102;23;90381;-70
2020/12/30 21:54:16;;;;;;;191.27;104.33;;;3.40;99.90;;;;;;12621865;23;87506;-70
2020/12/30 21:59:20;;;;;;;228.63;123.57;;;3.40;99.90;;;;;;12618850;23;87446;-70
2020/12/30 22:04:21;;;;;;;278.30;153.10;;;3.30;99.90;;;;;;12621124;23;87286;-70
2020/12/30 22:09:27;;;;;;;369.97;188.93;;;3.30;99.90;;;;;;12622102;23;88043;-70
2020/12/30 22:14:28;;;;;;;408.37;230.30;;;3.30;99.90;;;;;;12624164;23;88602;-71
2020/12/30 22:19:30;;;;;;;419.37;226.83;;;3.30;99.90;;;;;;12624555;23;87598;-71
2020/12/30 22:24:33;;;;;;;465.33;305.27;;;3.30;99.90;;;;;;12623120;23;89056;-72
2020/12/30 22:29:34;;;;;;;622.13;426.77;;;3.30;99.90;;;;;;12625088;23;87362;-71
2020/12/30 22:34:36;;;;;;;627.43;446.10;;;3.20;99.90;;;;;;12626459;23;87555;-71
2020/12/30 22:39:41;;;;;;;712.60;531.53;;;3.10;99.90;;;;;;12623499;23;88513;-71
2020/12/30 22:44:42;;;;;;;703.43;528.97;;;3.10;99.90;;;;;;12622047;23;88215;-71
2020/12/30 22:49:46;;;;;;;834.40;696.43;;;3.10;99.90;;;;;;12621638;23;87490;-71
2020/12/30 22:54:48;;;;;;;863.57;733.07;;;3.00;99.90;;;;;;12625533;23;86844;-71
2020/12/30 22:59:50;;;;;;;844.67;707.10;;;2.90;99.90;;;;;;12619287;23;88097;-71
2020/12/30 23:04:52;;;;;;;815.97;688.93;;;3.00;99.90;;;;;;12621633;23;88918;-70
2020/12/30 23:09:54;;;;;;;762.70;613.10;;;2.90;99.90;;;;;;12623861;23;86913;-71
2020/12/30 23:14:56;;;;;;;760.27;664.13;;;2.80;99.90;;;;;;12625135;23;87684;-70
2020/12/30 23:19:59;;;;;;;773.97;636.13;;;2.80;99.90;;;;;;12621910;23;87736;-71
2020/12/30 23:25:06;;;;;;;759.17;626.83;;;2.70;99.90;;;;;;12622822;23;87386;-71
2020/12/30 23:30:08;;;;;;;751.63;616.07;;;2.60;99.90;;;;;;12623362;23;88830;-71
2020/12/30 23:35:10;;;;;;;668.43;524.27;;;2.60;99.90;;;;;;12624827;23;87291;-72
2020/12/30 23:40:13;;;;;;;774.83;613.57;;;2.50;99.90;;;;;;12623689;23;88609;-71
2020/12/30 23:45:15;;;;;;;832.47;658.10;;;2.50;99.90;;;;;;12625953;23;87782;-71
2020/12/30 23:50:17;;;;;;;818.87;710.13;;;2.50;99.90;;;;;;12622210;23;88782;-71
2020/12/30 23:55:19;;;;;;;875.83;775.77;;;2.50;99.90;;;;;;12624037;23;87440;-71
